Time;durP1;ratioP1;P1;durP2;ratioP2;P2;SDS_P1;SDS_P2;PMS_P1;PMS_P2;Temp;Humidity;BMP_temperature;BMP_pressure;BME280_temperature;BME280_humidity;BME280_pressure;Samples;Min_cycle;Max_cycle;Signal;HPM_P1;HPM_P2
2023/09/22 00:01:32;;;;;;;0.52;0.52;;;;;;;18.32;69.24;96040.78;5071108;28;20041;-66
2023/09/22 00:04:01;;;;;;;0.30;0.30;;;;;;;18.33;68.75;96041.59;5070615;28;20036;-66
2023/09/22 00:06:29;;;;;;;0.40;0.40;;;;;;;18.32;69.18;96038.06;5070866;28;20052;-66
2023/09/22 00:08:57;;;;;;;0.50;0.50;;;;;;;18.38;69.13;96041.53;5070446;28;20045;-66
2023/09/22 00:11:25;;;;;;;0.35;0.35;;;;;;;18.38;68.93;96043.41;5062607;28;20068;-66
2023/09/22 00:13:53;;;;;;;0.30;0.30;;;;;;;18.30;68.74;96045.66;5067324;28;20071;-66
2023/09/22 00:16:20;;;;;;;0.55;0.55;;;;;;;18.24;69.15;96041.38;5052994;28;20052;-66
2023/09/22 00:18:49;;;;;;;0.40;0.40;;;;;;;18.15;69.00;96048.47;5069263;28;20098;-66
2023/09/22 00:21:18;;;;;;;0.40;0.40;;;;;;;18.14;69.17;96040.66;5071705;28;20522;-66
2023/09/22 00:23:45;;;;;;;0.45;0.45;;;;;;;18.12;69.17;96038.22;5074595;28;20119;-66
2023/09/22 00:26:13;;;;;;;0.40;0.40;;;;;;;18.08;68.89;96039.06;5075694;28;20127;-66
2023/09/22 00:28:41;;;;;;;0.43;0.43;;;;;;;18.00;68.56;96048.56;5056451;28;20132;-66
2023/09/22 00:31:09;;;;;;;0.30;0.30;;;;;;;17.93;68.66;96058.88;5047998;28;20585;-66
2023/09/22 00:33:37;;;;;;;0.40;0.40;;;;;;;17.80;68.51;96064.88;5074315;28;20076;-66
2023/09/22 00:36:05;;;;;;;0.47;0.47;;;;;;;17.69;70.43;96068.72;5074154;28;20140;-66
2023/09/22 00:38:34;;;;;;;0.50;0.50;;;;;;;17.51;72.39;96076.31;5057418;28;20063;-66
2023/09/22 00:41:01;;;;;;;0.38;0.38;;;;;;;17.28;73.10;96082.31;5076897;28;20132;-66
2023/09/22 00:43:29;;;;;;;0.50;0.50;;;;;;;17.00;74.40;96083.75;5077907;28;20060;-66
2023/09/22 00:45:57;;;;;;;0.40;0.40;;;;;;;16.83;75.88;96089.41;5075237;28;20127;-66
2023/09/22 00:48:29;;;;;;;0.32;0.32;;;;;;;16.77;77.23;96100.47;5073936;28;20109;-66
2023/09/22 00:50:58;;;;;;;0.50;0.50;;;;;;;16.70;78.65;96116.13;5051959;28;20098;-66
2023/09/22 00:53:26;;;;;;;0.35;0.35;;;;;;;16.65;78.48;96113.41;5075101;28;20119;-66
2023/09/22 00:55:55;;;;;;;0.40;0.40;;;;;;;16.52;79.91;96114.72;5076726;28;20040;-66
2023/09/22 00:58:23;;;;;;;0.38;0.38;;;;;;;16.43;80.21;96129.78;5074822;28;20037;-66
2023/09/22 01:00:52;;;;;;;0.40;0.40;;;;;;;16.41;80.89;96123.88;5074539;28;20036;-66
2023/09/22 01:03:20;;;;;;;0.45;0.45;;;;;;;16.41;81.44;96140.84;5074991;28;20072;-66
2023/09/22 01:05:48;;;;;;;0.55;0.55;;;;;;;16.36;81.99;96146.22;5048531;28;20060;-67
2023/09/22 01:08:16;;;;;;;0.40;0.40;;;;;;;16.44;81.91;96150.28;5075787;28;20055;-67
2023/09/22 01:10:44;;;;;;;0.47;0.47;;;;;;;16.44;82.73;96145.69;5057457;28;20420;-66
2023/09/22 01:13:13;;;;;;;0.40;0.40;;;;;;;16.47;82.17;96129.00;5059997;28;20470;-66
2023/09/22 01:15:42;;;;;;;0.60;0.60;;;;;;;16.59;82.83;96125.25;5073693;28;20056;-66
2023/09/22 01:18:13;;;;;;;0.35;0.35;;;;;;;16.70;82.11;96130.41;5073041;28;20063;-66
2023/09/22 01:20:42;;;;;;;0.50;0.50;;;;;;;16.71;81.09;96158.16;5073687;28;20055;-65
2023/09/22 01:23:12;;;;;;;0.55;0.55;;;;;;;16.65;82.04;96146.56;5073219;28;20097;-66
2023/09/22 01:25:40;;;;;;;0.55;0.55;;;;;;;16.67;81.84;96149.78;5055736;28;20254;-65
2023/09/22 01:28:08;;;;;;;0.57;0.57;;;;;;;16.68;82.40;96146.03;5049766;28;20048;-65
2023/09/22 01:30:39;;;;;;;0.38;0.38;;;;;;;16.66;82.22;96155.44;5073792;28;20033;-65
2023/09/22 01:33:07;;;;;;;0.43;0.43;;;;;;;16.65;81.57;96153.81;5068211;28;20042;-66
2023/09/22 01:35:36;;;;;;;0.50;0.50;;;;;;;16.57;81.78;96157.03;5073408;28;20033;-66
2023/09/22 01:38:13;;;;;;;0.50;0.50;;;;;;;16.50;83.04;96165.38;5051603;28;20044;-66
2023/09/22 01:40:41;;;;;;;0.43;0.43;;;;;;;16.47;82.14;96171.28;5070608;28;20457;-66
2023/09/22 01:43:08;;;;;;;0.85;0.85;;;;;;;16.48;81.86;96181.81;5073011;28;20235;-66
2023/09/22 01:45:36;;;;;;;0.40;0.40;;;;;;;16.38;82.58;96184.47;5073092;28;20033;-66
2023/09/22 01:48:05;;;;;;;0.50;0.50;;;;;;;16.29;82.28;96191.47;5065281;28;20040;-66
2023/09/22 01:50:35;;;;;;;0.40;0.40;;;;;;;16.20;82.42;96176.88;5072868;28;20037;-65
2023/09/22 01:53:03;;;;;;;0.40;0.40;;;;;;;16.21;82.63;96170.41;5054011;28;20120;-66
2023/09/22 01:55:33;;;;;;;0.38;0.38;;;;;;;16.24;82.26;96177.16;5072593;28;20068;-66
2023/09/22 01:58:00;;;;;;;0.75;0.75;;;;;;;16.27;82.45;96165.88;5046533;28;20052;-67
2023/09/22 02:00:28;;;;;;;0.47;0.47;;;;;;;16.24;81.84;96167.19;5056238;22;20056;-68
2023/09/22 02:02:56;;;;;;;0.45;0.45;;;;;;;16.25;81.99;96160.75;5021261;28;20104;-68
2023/09/22 02:05:24;;;;;;;0.40;0.40;;;;;;;16.28;81.97;96167.50;5020121;28;20077;-67
2023/09/22 02:07:51;;;;;;;0.50;0.50;;;;;;;16.32;83.00;96166.69;5015958;28;20048;-67
2023/09/22 02:10:20;;;;;;;0.10;0.10;;;;;;;16.35;83.07;96163.47;5023602;28;20460;-68
2023/09/22 02:12:49;;;;;;;0.50;0.50;;;;;;;16.33;81.12;96162.91;5023414;28;20133;-68
2023/09/22 02:15:17;;;;;;;0.40;0.40;;;;;;;16.39;81.67;96172.63;5024983;28;20053;-68
2023/09/22 02:17:46;;;;;;;0.38;0.38;;;;;;;16.34;81.42;96169.91;5018588;28;20484;-68
2023/09/22 02:20:18;;;;;;;0.60;0.60;;;;;;;16.28;82.08;96175.56;5023774;28;20038;-67
2023/09/22 02:22:47;;;;;;;0.60;0.60;;;;;;;16.13;82.68;96163.66;5014796;28;20419;-67
2023/09/22 02:25:16;;;;;;;0.47;0.47;;;;;;;16.12;82.58;96153.97;5023007;28;20128;-67
2023/09/22 02:27:45;;;;;;;0.50;0.50;;;;;;;16.20;82.43;96151.84;5017100;28;20120;-67
2023/09/22 02:30:15;;;;;;;0.50;0.50;;;;;;;16.23;82.10;96154.00;5022877;28;20115;-68
2023/09/22 02:32:46;;;;;;;0.43;0.43;;;;;;;16.14;81.79;96153.72;5013312;28;20034;-68
2023/09/22 02:35:15;;;;;;;0.40;0.40;;;;;;;16.16;82.43;96148.88;5022734;28;20053;-68
2023/09/22 02:37:42;;;;;;;0.10;0.10;;;;;;;16.15;82.73;96139.19;5015749;28;20448;-68
2023/09/22 02:40:13;;;;;;;0.45;0.45;;;;;;;16.16;81.81;96135.41;5013684;28;20132;-67
2023/09/22 02:42:40;;;;;;;0.52;0.52;;;;;;;16.10;83.51;96133.78;5014002;28;20096;-67
2023/09/22 02:45:10;;;;;;;0.43;0.43;;;;;;;16.14;82.87;96143.75;5020621;28;20054;-67
2023/09/22 02:47:40;;;;;;;0.43;0.43;;;;;;;16.20;82.41;96147.25;5010057;28;20042;-68
2023/09/22 02:50:10;;;;;;;0.20;0.20;;;;;;;16.18;83.25;96152.13;5014169;28;20463;-69
2023/09/22 02:52:39;;;;;;;0.50;0.50;;;;;;;16.10;82.08;96141.84;5006185;28;20125;-67
2023/09/22 02:55:09;;;;;;;0.40;0.40;;;;;;;16.06;82.23;96143.47;5017931;28;20129;-66
2023/09/22 02:57:37;;;;;;;0.70;0.70;;;;;;;16.03;82.63;96149.38;5019831;28;20049;-67
2023/09/22 03:00:11;;;;;;;0.85;0.85;;;;;;;16.03;82.36;96141.31;5018472;28;20132;-67
2023/09/22 03:02:44;;;;;;;0.40;0.40;;;;;;;15.96;83.28;96149.63;5019780;28;20042;-69
2023/09/22 03:05:14;;;;;;;0.57;0.57;;;;;;;15.94;82.96;96143.69;5009173;28;20045;-67
2023/09/22 03:07:43;;;;;;;0.40;0.40;;;;;;;15.90;83.00;96149.84;5019223;28;20584;-67
2023/09/22 03:10:12;;;;;;;0.60;0.60;;;;;;;15.88;83.19;96150.16;5007026;28;20081;-67
2023/09/22 03:12:40;;;;;;;0.38;0.38;;;;;;;15.84;83.51;96146.34;5008893;28;20113;-67
2023/09/22 03:15:09;;;;;;;0.70;0.70;;;;;;;15.81;84.03;96154.13;5010679;28;20033;-67
2023/09/22 03:17:39;;;;;;;0.40;0.40;;;;;;;15.79;84.01;96146.31;5015511;28;20042;-68
2023/09/22 03:20:12;;;;;;;0.50;0.45;;;;;;;15.79;83.65;96159.78;5009364;28;20412;-68
2023/09/22 03:22:41;;;;;;;0.35;0.35;;;;;;;15.86;84.02;96175.69;5009005;28;20042;-68
2023/09/22 03:25:09;;;;;;;0.70;0.70;;;;;;;15.77;83.75;96172.69;5010928;28;20037;-68
2023/09/22 03:27:39;;;;;;;0.38;0.38;;;;;;;15.79;83.95;96171.34;5007037;28;20117;-68
2023/09/22 03:30:11;;;;;;;0.50;0.50;;;;;;;15.83;83.45;96173.53;5010319;28;20079;-69
2023/09/22 03:32:40;;;;;;;0.40;0.40;;;;;;;15.81;83.66;96167.59;5012649;28;20074;-67
2023/09/22 03:35:14;;;;;;;0.63;0.63;;;;;;;15.77;83.71;96167.31;5006015;28;20075;-68
2023/09/22 03:37:42;;;;;;;0.60;0.60;;;;;;;15.74;84.58;96162.47;5017115;28;20077;-70
2023/09/22 03:40:13;;;;;;;0.43;0.43;;;;;;;15.76;83.99;96166.50;5006797;28;20050;-68
2023/09/22 03:42:43;;;;;;;0.40;0.40;;;;;;;15.82;83.73;96178.09;5009076;28;20046;-68
2023/09/22 03:45:12;;;;;;;0.57;0.57;;;;;;;15.80;83.40;96177.53;5016176;28;20038;-68
2023/09/22 03:47:41;;;;;;;0.40;0.40;;;;;;;15.80;83.87;96180.22;5014057;28;21387;-68
2023/09/22 03:50:11;;;;;;;0.50;0.50;;;;;;;15.75;84.27;96177.53;5005935;28;20095;-69
2023/09/22 03:52:40;;;;;;;0.40;0.40;;;;;;;15.76;84.00;96176.47;5013115;28;20530;-68
2023/09/22 03:55:09;;;;;;;0.40;0.40;;;;;;;15.84;84.45;96183.22;5011078;28;20089;-67
2023/09/22 03:57:37;;;;;;;0.05;0.05;;;;;;;15.87;84.49;96188.09;5019865;28;20464;-68
2023/09/22 04:00:16;;;;;;;0.40;0.40;;;;;;;15.77;84.36;96181.59;5020676;28;20037;-67
2023/09/22 04:02:45;;;;;;;0.40;0.40;;;;;;;15.84;84.62;96178.66;5004588;28;20045;-68
2023/09/22 04:05:15;;;;;;;0.43;0.43;;;;;;;15.86;84.61;96191.84;5011551;28;20057;-68
2023/09/22 04:07:43;;;;;;;0.60;0.60;;;;;;;15.88;84.89;96195.09;5007719;28;20046;-70
2023/09/22 04:10:12;;;;;;;0.47;0.47;;;;;;;15.89;84.33;96194.78;5013484;28;20132;-69
2023/09/22 04:12:39;;;;;;;0.50;0.50;;;;;;;15.82;84.46;96196.13;5009958;28;20046;-68
2023/09/22 04:15:09;;;;;;;0.50;0.50;;;;;;;15.91;84.47;96191.84;5018932;28;20091;-68
2023/09/22 04:17:38;;;;;;;0.43;0.43;;;;;;;15.89;83.99;96189.41;5018126;28;20544;-68
2023/09/22 04:20:08;;;;;;;0.30;0.30;;;;;;;15.94;83.65;96185.94;5018413;28;20042;-69
2023/09/22 04:22:37;;;;;;;0.55;0.55;;;;;;;15.90;83.50;96192.91;5013968;28;20050;-68
2023/09/22 04:25:12;;;;;;;0.17;0.17;;;;;;;15.91;84.06;96183.78;5019250;28;20569;-69
2023/09/22 04:27:43;;;;;;;0.40;0.40;;;;;;;15.97;84.96;96166.59;5015996;28;20050;-67
2023/09/22 04:30:13;;;;;;;0.35;0.35;;;;;;;15.97;84.28;96169.28;5011074;28;20037;-68
2023/09/22 04:32:41;;;;;;;0.40;0.40;;;;;;;15.94;84.34;96157.16;5015728;28;20512;-68
2023/09/22 04:35:09;;;;;;;0.43;0.43;;;;;;;15.87;84.49;96163.88;5019321;28;20056;-69
2023/09/22 04:37:40;;;;;;;0.50;0.50;;;;;;;15.93;84.08;96171.69;5021384;28;20121;-68
2023/09/22 04:40:20;;;;;;;0.40;0.40;;;;;;;15.95;84.07;96166.84;5009650;28;20092;-68
2023/09/22 04:42:48;;;;;;;0.63;0.63;;;;;;;16.00;84.73;96168.72;5016953;28;20046;-68
2023/09/22 04:45:18;;;;;;;0.30;0.30;;;;;;;15.98;83.31;96181.66;5010978;28;20042;-68
2023/09/22 04:47:47;;;;;;;0.50;0.50;;;;;;;15.96;83.78;96187.31;5015785;28;20050;-68
2023/09/22 04:50:16;;;;;;;0.55;0.55;;;;;;;15.95;83.66;96199.16;5011289;28;20053;-69
2023/09/22 04:52:46;;;;;;;0.43;0.43;;;;;;;15.88;84.31;96208.53;5012965;28;20141;-68
2023/09/22 04:55:16;;;;;;;0.38;0.38;;;;;;;15.85;84.54;96207.19;5018387;28;20042;-68
2023/09/22 04:57:44;;;;;;;0.50;0.50;;;;;;;15.82;85.12;96214.94;5021515;28;20092;-68
2023/09/22 05:00:16;;;;;;;0.30;0.30;;;;;;;15.83;84.17;96220.06;5011225;28;20041;-68
2023/09/22 05:02:44;;;;;;;0.52;0.52;;;;;;;15.81;84.38;96210.63;5012486;28;20041;-68
2023/09/22 05:05:12;;;;;;;0.45;0.45;;;;;;;15.84;84.31;96200.16;5005895;28;20044;-68
2023/09/22 05:07:40;;;;;;;0.05;0.05;;;;;;;15.83;84.26;96201.25;5010520;28;20465;-68
2023/09/22 05:10:09;;;;;;;0.45;0.45;;;;;;;15.83;84.21;96193.16;5012678;28;20046;-68
2023/09/22 05:12:37;;;;;;;0.35;0.35;;;;;;;15.78;84.58;96201.19;5017133;28;20520;-68
2023/09/22 05:15:06;;;;;;;0.20;0.20;;;;;;;15.79;85.06;96206.31;5023155;28;20714;-68
2023/09/22 05:17:34;;;;;;;0.50;0.50;;;;;;;15.84;84.79;96212.81;5011438;28;20053;-69
2023/09/22 05:20:04;;;;;;;0.57;0.57;;;;;;;15.79;85.15;96214.41;5014419;28;20041;-69
2023/09/22 05:22:31;;;;;;;0.10;0.10;;;;;;;15.83;84.75;96230.84;5010067;28;20466;-68
2023/09/22 05:24:59;;;;;;;0.10;0.10;;;;;;;15.79;84.78;96244.00;5022046;28;20462;-68
2023/09/22 05:27:28;;;;;;;0.45;0.45;;;;;;;15.67;84.43;96242.59;5009372;28;20043;-68
2023/09/22 05:29:56;;;;;;;0.50;0.50;;;;;;;15.60;85.08;96245.50;5015083;28;20048;-69
2023/09/22 05:32:24;;;;;;;0.40;0.40;;;;;;;15.56;84.44;96241.72;5005402;28;20100;-68
2023/09/22 05:34:52;;;;;;;0.60;0.60;;;;;;;15.55;85.18;96253.56;5013471;28;20041;-68
2023/09/22 05:37:20;;;;;;;0.40;0.40;;;;;;;15.48;85.46;96254.78;5009065;28;20145;-68
2023/09/22 05:39:47;;;;;;;0.52;0.52;;;;;;;15.53;85.31;96255.66;5010838;28;20042;-68
2023/09/22 05:42:17;;;;;;;0.47;0.47;;;;;;;15.51;84.53;96257.78;5012250;28;20069;-68
2023/09/22 05:44:46;;;;;;;0.40;0.40;;;;;;;15.51;84.58;96265.84;5017829;28;20041;-69
2023/09/22 05:47:14;;;;;;;0.45;0.45;;;;;;;15.52;84.19;96266.66;5006937;28;20115;-68
2023/09/22 05:49:42;;;;;;;0.65;0.65;;;;;;;15.52;84.01;96267.47;5015489;28;20041;-68
2023/09/22 05:52:10;;;;;;;0.65;0.65;;;;;;;15.44;84.59;96281.41;5011853;28;20501;-68
2023/09/22 05:54:37;;;;;;;0.40;0.40;;;;;;;15.50;84.03;96279.56;5019900;28;20240;-68
2023/09/22 05:57:06;;;;;;;0.93;0.93;;;;;;;15.35;84.22;96275.69;5015965;28;20049;-68
2023/09/22 05:59:37;;;;;;;0.60;0.60;;;;;;;15.37;84.08;96275.41;5011034;28;20038;-68
2023/09/22 06:02:06;;;;;;;0.45;0.45;;;;;;;15.39;84.46;96281.34;5014955;28;20049;-68
2023/09/22 06:04:34;;;;;;;0.40;0.40;;;;;;;15.36;83.87;96280.00;5008038;28;20038;-68
2023/09/22 06:07:03;;;;;;;0.40;0.40;;;;;;;15.45;83.80;96284.91;5012380;28;20117;-68
2023/09/22 06:09:31;;;;;;;0.47;0.47;;;;;;;15.39;84.17;96297.50;5018818;28;20045;-67
2023/09/22 06:11:59;;;;;;;0.47;0.47;;;;;;;15.38;83.67;96296.69;5010327;28;20048;-67
2023/09/22 06:14:27;;;;;;;0.50;0.50;;;;;;;15.33;83.06;96293.97;5019574;28;20041;-68
2023/09/22 06:16:54;;;;;;;0.50;0.50;;;;;;;15.28;83.73;96295.78;5006153;28;20117;-68
2023/09/22 06:19:23;;;;;;;0.50;0.50;;;;;;;15.34;83.59;96303.66;5017102;28;20050;-68
2023/09/22 06:21:52;;;;;;;0.40;0.40;;;;;;;15.34;83.14;96308.22;5009034;28;20048;-68
2023/09/22 06:24:20;;;;;;;0.40;0.40;;;;;;;15.28;83.40;96301.97;5017901;28;20041;-69
2023/09/22 06:26:48;;;;;;;0.40;0.40;;;;;;;15.28;83.51;96301.97;5003739;28;20086;-70
2023/09/22 06:29:16;;;;;;;0.50;0.50;;;;;;;15.39;83.15;96300.19;5014110;28;20046;-69
2023/09/22 06:31:44;;;;;;;0.40;0.40;;;;;;;15.34;82.72;96316.28;5019988;28;20045;-70
2023/09/22 06:34:11;;;;;;;0.43;0.43;;;;;;;15.33;82.73;96322.72;5017136;28;20114;-68
2023/09/22 06:36:41;;;;;;;0.32;0.32;;;;;;;15.33;82.35;96328.91;5008506;28;20088;-68
2023/09/22 06:39:09;;;;;;;0.32;0.32;;;;;;;15.28;82.37;96342.28;5015410;28;20570;-69
2023/09/22 06:41:37;;;;;;;0.55;0.55;;;;;;;15.29;82.40;96335.03;5009058;28;20049;-69
2023/09/22 06:44:10;;;;;;;0.10;0.10;;;;;;;15.26;82.88;96335.56;5005451;28;20546;-69
2023/09/22 06:46:37;;;;;;;0.55;0.55;;;;;;;15.26;83.16;96330.19;5000057;28;20038;-68
2023/09/22 06:49:07;;;;;;;0.60;0.60;;;;;;;15.29;82.48;96317.03;5007741;28;20169;-68
2023/09/22 06:51:37;;;;;;;0.43;0.43;;;;;;;15.28;82.41;96319.97;5006084;28;20089;-69
2023/09/22 06:54:06;;;;;;;0.50;0.50;;;;;;;15.29;82.84;96324.28;5013458;28;20046;-69
2023/09/22 06:56:34;;;;;;;0.55;0.55;;;;;;;15.28;82.93;96330.72;5022528;28;20045;-68
2023/09/22 06:59:16;;;;;;;0.30;0.30;;;;;;;15.31;82.61;96330.22;5015668;28;20092;-69
2023/09/22 07:01:43;;;;;;;0.50;0.50;;;;;;;15.31;82.58;96331.03;5021551;28;20437;-68
2023/09/22 07:04:12;;;;;;;0.32;0.32;;;;;;;15.38;82.25;96341.56;5008837;28;20123;-68
2023/09/22 07:06:41;;;;;;;0.52;0.52;;;;;;;15.33;81.79;96328.91;5010647;28;20524;-68
2023/09/22 07:09:12;;;;;;;0.45;0.45;;;;;;;15.29;81.62;96335.03;5010168;28;20054;-69
2023/09/22 07:11:40;;;;;;;0.63;0.63;;;;;;;15.23;81.81;96342.28;5008145;28;20045;-69
2023/09/22 07:14:08;;;;;;;0.73;0.73;;;;;;;15.26;81.82;96349.81;5008321;28;20390;-69
2023/09/22 07:16:36;;;;;;;0.40;0.40;;;;;;;15.23;81.80;96361.09;5013486;28;20096;-68
2023/09/22 07:19:05;;;;;;;0.52;0.52;;;;;;;15.29;81.87;96367.31;5009229;28;20046;-68
2023/09/22 07:21:34;;;;;;;0.50;0.50;;;;;;;15.32;82.13;96370.31;5016678;28;20041;-69
2023/09/22 07:24:02;;;;;;;0.50;0.50;;;;;;;15.26;82.32;96375.91;5006015;28;20088;-68
2023/09/22 07:26:31;;;;;;;0.40;0.40;;;;;;;15.32;82.97;96382.94;5005731;28;20042;-68
2023/09/22 07:28:59;;;;;;;0.47;0.47;;;;;;;15.33;82.50;96392.63;5021313;28;20128;-68
2023/09/22 07:31:30;;;;;;;0.47;0.47;;;;;;;15.31;82.50;96389.38;5018515;28;20097;-68
2023/09/22 07:33:59;;;;;;;0.50;0.50;;;;;;;15.32;83.00;96394.50;5010575;28;20053;-68
2023/09/22 07:36:27;;;;;;;0.10;0.10;;;;;;;15.31;83.10;96403.63;5016436;28;20442;-68
2023/09/22 07:38:54;;;;;;;0.68;0.68;;;;;;;15.32;83.38;96410.63;5006453;28;20125;-69
2023/09/22 07:41:22;;;;;;;0.38;0.38;;;;;;;15.26;82.09;96408.16;5010007;28;20046;-68
2023/09/22 07:43:52;;;;;;;0.52;0.52;;;;;;;15.30;82.72;96406.56;5002975;28;20122;-68
2023/09/22 07:46:22;;;;;;;0.40;0.40;;;;;;;15.19;81.96;96407.53;5012162;28;20120;-69
2023/09/22 07:48:51;;;;;;;0.40;0.40;;;;;;;15.23;81.59;96392.53;5017125;28;20400;-71
2023/09/22 07:51:20;;;;;;;0.00;0.00;;;;;;;15.25;82.07;96420.78;5014342;28;20444;-68
2023/09/22 07:53:47;;;;;;;0.45;0.45;;;;;;;15.25;82.35;96434.22;4999504;28;20041;-68
2023/09/22 07:56:16;;;;;;;0.60;0.60;;;;;;;15.30;82.68;96441.53;5017154;28;20041;-68
2023/09/22 07:58:44;;;;;;;0.10;0.10;;;;;;;15.28;82.02;96441.78;5011037;28;20491;-68
2023/09/22 08:01:30;;;;;;;0.45;0.45;;;;;;;15.28;80.85;96451.72;5026653;22;20128;-66
2023/09/22 08:03:58;;;;;;;0.40;0.40;;;;;;;15.28;80.64;96457.09;5026804;28;20081;-66
2023/09/22 08:06:31;;;;;;;0.60;0.60;;;;;;;15.26;81.00;96464.63;5019984;28;20076;-66
2023/09/22 08:08:58;;;;;;;0.40;0.40;;;;;;;15.27;80.74;96469.72;5032806;28;20046;-66
2023/09/22 08:11:26;;;;;;;0.10;0.10;;;;;;;15.37;80.64;96472.53;5027548;28;20475;-66
2023/09/22 08:13:54;;;;;;;0.57;0.57;;;;;;;15.29;80.05;96475.66;5026341;28;20068;-65
2023/09/22 08:16:22;;;;;;;1.02;1.02;;;;;;;15.33;80.23;96476.78;5028211;28;20056;-66
2023/09/22 08:18:51;;;;;;;0.60;0.60;;;;;;;15.32;80.16;96480.53;5034314;28;20080;-66
2023/09/22 08:21:20;;;;;;;0.40;0.40;;;;;;;15.42;79.62;96469.91;5028196;28;20761;-66
2023/09/22 08:23:48;;;;;;;0.40;0.40;;;;;;;15.23;79.08;96473.19;5028977;28;20045;-66
2023/09/22 08:26:19;;;;;;;0.47;0.47;;;;;;;15.24;79.47;96472.13;5028113;28;20117;-66
2023/09/22 08:28:47;;;;;;;0.43;0.43;;;;;;;15.24;78.45;96472.13;5025340;28;20100;-66
2023/09/22 08:31:14;;;;;;;0.40;0.40;;;;;;;15.17;79.12;96463.41;5020783;28;20124;-66
2023/09/22 08:33:42;;;;;;;0.47;0.47;;;;;;;15.22;78.90;96458.09;5034056;28;20076;-67
2023/09/22 08:36:11;;;;;;;0.10;0.10;;;;;;;15.16;79.38;96456.44;5026622;28;20512;-66
2023/09/22 08:38:39;;;;;;;0.10;0.10;;;;;;;15.15;78.76;96466.38;5032306;28;20471;-66
2023/09/22 08:41:07;;;;;;;0.10;0.10;;;;;;;15.12;78.99;96458.00;5027535;28;20463;-66
2023/09/22 08:43:35;;;;;;;0.00;0.00;;;;;;;15.10;78.97;96463.63;5029439;28;20421;-67
2023/09/22 08:46:03;;;;;;;0.57;0.57;;;;;;;15.10;78.60;96470.88;5026065;28;20045;-66
2023/09/22 08:48:31;;;;;;;0.50;0.50;;;;;;;15.12;78.21;96466.06;5033370;28;20045;-66
2023/09/22 08:50:59;;;;;;;0.10;0.10;;;;;;;15.09;77.45;96469.25;5027284;28;20418;-66
2023/09/22 08:53:29;;;;;;;0.50;0.50;;;;;;;15.09;77.75;96470.06;5032199;28;20116;-65
2023/09/22 08:55:57;;;;;;;0.60;0.60;;;;;;;15.11;77.75;96464.44;5029889;28;20037;-66
2023/09/22 08:58:25;;;;;;;0.10;0.10;;;;;;;15.16;78.28;96467.97;5026042;28;20601;-65
2023/09/22 09:00:53;;;;;;;0.43;0.43;;;;;;;15.26;78.28;96473.47;5037628;28;20049;-68
2023/09/22 09:03:21;;;;;;;0.40;0.40;;;;;;;15.32;77.69;96464.41;5039069;28;20049;-66
2023/09/22 09:05:50;;;;;;;0.70;0.70;;;;;;;15.38;76.26;96459.88;5030415;28;20678;-66
2023/09/22 09:08:21;;;;;;;0.55;0.55;;;;;;;15.36;76.49;96467.41;5040532;28;20067;-66
2023/09/22 09:10:50;;;;;;;0.50;0.50;;;;;;;15.41;76.39;96462.09;5033114;28;20492;-66
2023/09/22 09:13:20;;;;;;;0.35;0.35;;;;;;;15.48;75.59;96462.69;5031644;28;20044;-65
2023/09/22 09:15:50;;;;;;;0.50;0.50;;;;;;;15.40;75.92;96461.25;5027367;28;20520;-65
2023/09/22 09:18:19;;;;;;;0.50;0.50;;;;;;;15.43;75.35;96468.84;5028318;28;20037;-66
2023/09/22 09:20:48;;;;;;;0.60;0.60;;;;;;;15.52;74.36;96463.81;5025504;28;20080;-66
2023/09/22 09:23:17;;;;;;;0.45;0.45;;;;;;;15.56;74.59;96456.09;5031340;28;20045;-66
2023/09/22 09:25:46;;;;;;;0.10;0.10;;;;;;;15.56;73.54;96451.53;5038838;28;20384;-66
2023/09/22 09:28:17;;;;;;;0.40;0.40;;;;;;;15.49;73.83;96468.88;5027293;28;20049;-65
2023/09/22 09:30:51;;;;;;;0.40;0.40;;;;;;;15.56;73.79;96464.97;5024728;28;20123;-65
2023/09/22 09:33:23;;;;;;;0.52;0.52;;;;;;;15.60;72.90;96466.06;5021123;28;20124;-66
2023/09/22 09:35:52;;;;;;;0.88;0.88;;;;;;;15.66;73.17;96473.13;5026485;28;20048;-66
2023/09/22 09:38:21;;;;;;;0.47;0.47;;;;;;;15.69;71.56;96467.22;5035295;28;20062;-65
2023/09/22 09:40:51;;;;;;;0.40;0.40;;;;;;;15.67;72.08;96463.19;5028226;28;20042;-65
2023/09/22 09:43:20;;;;;;;0.60;0.60;;;;;;;15.74;72.30;96469.97;5009639;28;20137;-66
2023/09/22 09:45:51;;;;;;;0.60;0.60;;;;;;;15.85;72.02;96464.69;5038474;28;20071;-66
2023/09/22 09:48:21;;;;;;;0.57;0.57;;;;;;;15.93;71.92;96456.97;5032738;28;20093;-67
2023/09/22 09:50:50;;;;;;;0.47;0.47;;;;;;;15.96;70.49;96456.44;5032661;28;20120;-66
2023/09/22 09:53:27;;;;;;;0.47;0.47;;;;;;;15.94;70.84;96449.69;5039473;28;20121;-66
2023/09/22 09:55:58;;;;;;;0.80;0.80;;;;;;;15.89;70.67;96453.13;5032409;28;20088;-67
2023/09/22 09:58:30;;;;;;;0.57;0.57;;;;;;;15.86;70.96;96456.38;5029182;28;20042;-67
2023/09/22 10:00:59;;;;;;;0.47;0.47;;;;;;;15.73;70.89;96457.59;5026898;28;20045;-66
2023/09/22 10:03:28;;;;;;;0.40;0.40;;;;;;;15.71;70.54;96461.59;5028041;28;20049;-67
2023/09/22 10:05:57;;;;;;;0.75;0.75;;;;;;;15.71;71.06;96438.19;5034329;28;20120;-67
2023/09/22 10:08:26;;;;;;;0.43;0.43;;;;;;;15.66;71.03;96459.69;5039437;28;20048;-66
2023/09/22 10:10:58;;;;;;;0.40;0.40;;;;;;;15.71;71.39;96473.16;5033369;28;20078;-66
2023/09/22 10:13:26;;;;;;;0.65;0.65;;;;;;;15.73;71.33;96472.91;5035053;28;20041;-67
2023/09/22 10:15:57;;;;;;;0.55;0.55;;;;;;;15.79;71.83;96478.09;5025321;28;20042;-67
2023/09/22 10:18:46;;;;;;;0.50;0.50;;;;;;;15.81;71.43;96458.19;5032432;28;20041;-67
2023/09/22 10:21:43;;;;;;;0.75;0.75;;;;;;;15.81;71.90;96452.81;5030634;28;20370;-66
2023/09/22 10:24:15;;;;;;;0.30;0.30;;;;;;;15.71;71.84;96457.03;5041585;28;20091;-65
2023/09/22 10:27:08;;;;;;;0.50;0.50;;;;;;;15.69;72.69;96475.31;5045517;28;20049;-65
2023/09/22 10:29:45;;;;;;;0.50;0.50;;;;;;;15.76;73.34;96486.69;5037506;28;20492;-65
2023/09/22 10:32:27;;;;;;;0.43;0.43;;;;;;;15.69;73.42;96483.38;5035474;28;20559;-65
2023/09/22 10:35:40;;;;;;;0.52;0.52;;;;;;;15.68;73.36;96495.19;5035149;28;20530;-66
2023/09/22 10:38:10;;;;;;;0.50;0.50;;;;;;;15.62;73.81;96496.22;5019545;28;20048;-67
2023/09/22 10:40:40;;;;;;;0.45;0.45;;;;;;;15.67;74.59;96492.78;5039187;28;20041;-65
2023/09/22 10:43:08;;;;;;;0.40;0.40;;;;;;;15.70;74.02;96509.22;5038496;28;20045;-67
2023/09/22 10:45:36;;;;;;;0.52;0.52;;;;;;;15.73;74.47;96510.59;5039470;28;20484;-66
2023/09/22 10:48:04;;;;;;;0.32;0.32;;;;;;;15.69;74.38;96517.53;5037733;28;20041;-67
2023/09/22 10:50:33;;;;;;;0.45;0.45;;;;;;;15.59;75.38;96518.25;5039996;28;20049;-67
2023/09/22 10:53:03;;;;;;;0.50;0.50;;;;;;;15.59;74.98;96514.72;5031998;28;20569;-67
2023/09/22 10:55:35;;;;;;;0.55;0.55;;;;;;;15.52;75.17;96522.97;5031408;28;20058;-67
2023/09/22 10:58:04;;;;;;;0.40;0.40;;;;;;;15.52;75.74;96524.84;5047330;28;20048;-68
2023/09/22 11:00:35;;;;;;;0.75;0.75;;;;;;;15.49;76.33;96526.16;5034964;28;20046;-66
2023/09/22 11:03:08;;;;;;;0.50;0.50;;;;;;;15.47;76.74;96530.97;5033863;28;20045;-67
2023/09/22 11:05:37;;;;;;;0.45;0.45;;;;;;;15.46;77.23;96524.00;5035629;28;20052;-67
2023/09/22 11:08:16;;;;;;;0.55;0.55;;;;;;;15.43;77.43;96529.88;5034785;28;20065;-67
2023/09/22 11:10:44;;;;;;;0.75;0.75;;;;;;;15.41;78.46;96527.44;5036210;28;20129;-67
2023/09/22 11:13:13;;;;;;;0.63;0.63;;;;;;;15.38;78.34;96516.34;5036446;28;20489;-66
2023/09/22 11:15:48;;;;;;;0.57;0.57;;;;;;;15.32;78.39;96536.19;5019914;28;20065;-67
2023/09/22 11:18:21;;;;;;;0.52;0.52;;;;;;;15.28;79.20;96519.75;5039274;28;20084;-67
2023/09/22 11:20:50;;;;;;;0.40;0.40;;;;;;;15.24;78.99;96528.56;5025385;28;20045;-65
2023/09/22 11:23:20;;;;;;;0.50;0.50;;;;;;;15.24;78.73;96520.50;5039508;28;20045;-66
2023/09/22 11:25:54;;;;;;;0.13;0.13;;;;;;;15.30;79.54;96532.94;5024729;28;20430;-66
2023/09/22 11:28:22;;;;;;;0.60;0.60;;;;;;;15.29;79.19;96520.56;5036584;28;20068;-66
2023/09/22 11:30:54;;;;;;;0.40;0.40;;;;;;;15.25;79.34;96509.50;5030573;28;20381;-66
2023/09/22 11:33:23;;;;;;;0.43;0.43;;;;;;;15.28;79.57;96503.59;5035832;28;20037;-65
2023/09/22 11:35:53;;;;;;;0.57;0.57;;;;;;;15.32;79.37;96499.38;5032730;28;20053;-66
2023/09/22 11:38:27;;;;;;;0.40;0.40;;;;;;;15.33;79.95;96506.38;5027993;28;20041;-65
2023/09/22 11:41:04;;;;;;;0.77;0.77;;;;;;;15.37;80.64;96517.41;5026555;28;20050;-66
2023/09/22 11:43:32;;;;;;;0.40;0.40;;;;;;;15.38;79.54;96498.34;5030121;28;20100;-66
2023/09/22 11:46:07;;;;;;;0.40;0.40;;;;;;;15.41;79.58;96489.78;5026889;28;20042;-66